Dansville, New York
Current Conditions -  °F | °C
As of 2:54 PM on Friday 19 Dec 2014 (Local Time) from KDSV Reporting Station
Overcast Overcast  
Wind Chill: -6°   Ceiling: 3100
Heat Index: -2°   Visibility: 10mi
Dew Point: -7°   Wind: 8mph
Humidity: 67%   Direction: 300°WNW
Pressure: 30.16"   Gusts: NA
Location:  42.56°N, 77.7°W
Report Text: KDSV 191954Z AUTO 30007KT 10SM FEW025 BKN031 OVC043 M02/M07 A3016 RMK AO2 SLP231 T10171072
Loading
Personal Weather Stations






























Interactive Weather Map New forecast layout! Learn more

10-Day Weather Forecast

Advertisements
Track Severe Weather on mobile